METAR AND TAF INFORMATION
METAR FOR VTBS
ADDS - METARS form results

(0208 UTC 06 March 2021)
Data provider http://aviationweather.gov/metar/data/
 
METAR text: VTBS 060200Z 18008KT 9999 FEW020 30/23 Q1014 NOSIG
Conditions at: VTBS (CHON BURI/SATTAH, TH) observed 0200 UTC 06 March 2021
Temperature: 30.0°C (86°F)
Dewpoint: 23.0°C (73°F) [RH = 66%]
Pressure (altimeter): 29.94 inches Hg (1014.0 mb)
Winds: from the S (180 degrees) at 9 MPH (8 knots; 4.1 m/s)
Visibility: 6 or more miles (10+ km)
Ceiling: at least 12,000 feet AGL
Clouds: few clouds at 2000 feet AGL
Weather: no significant weather observed at this time

METAR text: VTBS 060130Z 17008KT 9999 FEW020 30/24 Q1014 NOSIG
Conditions at: VTBS (CHON BURI/SATTAH, TH) observed 0130 UTC 06 March 2021
Temperature: 30.0°C (86°F)
Dewpoint: 24.0°C (75°F) [RH = 70%]
Pressure (altimeter): 29.94 inches Hg (1014.0 mb)
Winds: from the S (170 degrees) at 9 MPH (8 knots; 4.1 m/s)
Visibility: 6 or more miles (10+ km)
Ceiling: at least 12,000 feet AGL
Clouds: few clouds at 2000 feet AGL
Weather: no significant weather observed at this time

Forecast for: VTBS (CHON BURI/SATTAH, TH)
Text: TAF VTBS 052300Z 0600/0706 20008KT 9999 FEW020
Forecast period: 0000 UTC 06 March 2021 to 0600 UTC 07 March 2021
Forecast type: FROM: standard forecast or significant change
Winds: from the SSW (200 degrees) at 9 MPH (8 knots; 4.1 m/s)
Visibility: 6 or more miles (10+ km)
Ceiling: at least 12,000 feet AGL
Clouds: few clouds at 2000 feet AGL
Weather: no significant weather forecast for this period

 AIRPORT MAP

 RUNWAY INFORMATION

 AIRPORT FREQUENCIES
Type ATIS Name Frequency 127.8 MHZ
Type GROUND (EA Name Frequency 121.65 MHZ
Type GROUND (MA Name Frequency 121.75 MHZ
Type GROUND (WE Name Frequency 121.95 MHZ
Type TOWER (01L Name Frequency 119 MHZ
Type TOWER (01R Name Frequency 118.2 MHZ

 AIRPORT NEAR NAVIGATION AIDS
Type VOR-DME Name Suvarnabhumi Intl Frequency 111400 KHZ



2018 Air Astana Virtual Airline